• Join FlightAware (Why Join?)
  • Login
  • US Flag 
06:40AM EST


 

Airport Tracker/Info


-or-


 

Live Flight TrackerFlight Track Log ✈ UAL780 ✈ 14-May-2013 ✈ KPIT - KIAH

Flight Track Log - Related Links

Times and Time Zones

All times are in EDT time to prevent confusion due to time zone crossing. See the UAL780 flight status page for this flight to view local times or setup timezone preferences in your user account.

Time Position Orientation Groundspeed Altitude Reporting Facility
EDT Latitude Longitude Course Direction KTS MPH feet Rate Location/Type
11:53AM 40.4733 -80.3239 221° Southwest 156 180 4,100  Level Cleveland Center
11:54AM 40.1578 -80.3075 190° South  Level FlightAware Approximate
11:54AM 40.3942 -80.3350 186° South 208 239 7,100  Level Cleveland Center
11:55AM 40.0490 -80.3360 192° South  Level FlightAware Approximate
11:55AM 40.3128 -80.3408 183° South 246 283 9,700  Level Cleveland Center
11:56AM 39.9411 -80.3696 194° South  Level FlightAware Approximate
11:56AM 40.2233 -80.3519 185° South 335 386 11,400  Level Cleveland Center
11:57AM 39.8407 -80.4274 221° Southwest  Level FlightAware Approximate
11:57AM 40.1461 -80.3983 205° Southwest 340 391 13,900  Level Cleveland Center
11:58AM 39.7573 -80.5227 221° Southwest  Level FlightAware Approximate
11:58AM 40.0589 -80.4692 212° Southwest 353 406 16,300  Level Cleveland Center
11:59AM 39.9672 -80.5425 212° Southwest 374 430 18,000 2,100 Climbing Cleveland Center
12:00PM 39.8586 -80.6289 211° Southwest 395 455 20,500 1,800 Climbing Cleveland Center
12:02PM 39.6447 -80.7925 211° Southwest 431 496 23,800 1,440 Climbing Indianapolis Center
12:03PM 39.5353 -80.8767 211° Southwest 451 519 25,300 1,320 Climbing Indianapolis Center
12:04PM 39.4264 -80.9706 214° Southwest 467 537 26,600 1,440 Climbing Indianapolis Center
12:05PM 39.2950 -81.0858 214° Southwest 476 548 28,300 1,500 Climbing Indianapolis Center
12:06PM 39.1822 -81.1831 214° Southwest 485 558 29,700 1,260 Climbing Indianapolis Center
12:07PM 39.0711 -81.2811 214° Southwest 484 557 31,000 1,260 Climbing Indianapolis Center
12:08PM 38.9600 -81.3775 214° Southwest 483 556 32,400 960 Climbing Indianapolis Center
12:09PM 38.8492 -81.4736 214° Southwest 482 555 33,000 240 Climbing Indianapolis Center
12:10PM 38.7389 -81.5678 214° Southwest 480 552 33,000 660 Level Indianapolis Center
12:11PM 38.6122 -81.6767 214° Southwest 483 556 34,400 1,080 Climbing Indianapolis Center
12:12PM 38.5047 -81.7692 214° Southwest 471 542 35,300 780 Climbing Indianapolis Center
12:13PM 38.3958 -81.8617 214° Southwest 469 540 36,000 300 Climbing Indianapolis Center
12:14PM 38.2869 -81.9544 214° Southwest 471 542 36,000  Level Indianapolis Center
12:15PM 38.1786 -82.0469 214° Southwest 469 540 36,000  Level Indianapolis Center
12:16PM 38.0694 -82.1383 213° Southwest 470 541 36,000  Level Indianapolis Center
12:17PM 37.9561 -82.2342 214° Southwest 467 537 36,000  Level Indianapolis Center
12:18PM 37.8281 -82.3400 213° Southwest 470 541 36,000  Level Indianapolis Center
12:19PM 37.7186 -82.4289 213° Southwest 469 540 36,000  Level Indianapolis Center
12:20PM 37.6103 -82.5211 214° Southwest 469 540 36,000  Level Indianapolis Center
12:21PM 37.5017 -82.6119 214° Southwest 470 541 36,000  Level Indianapolis Center
12:22PM 37.3931 -82.7008 213° Southwest 465 535 36,000  Level Indianapolis Center
12:23PM 37.2836 -82.7903 213° Southwest 468 539 36,000  Level Indianapolis Center
12:24PM 37.1581 -82.8933 213° Southwest 464 534 36,000  Level Indianapolis Center
12:25PM 37.0511 -82.9822 214° Southwest 464 534 36,000  Level Indianapolis Center
12:27PM 36.9431 -83.0700 213° Southwest 470 541 36,000  Level Indianapolis Center
12:28PM 36.8342 -83.1553 212° Southwest 469 540 36,000  Level Indianapolis Center
12:29PM 36.7253 -83.2431 213° Southwest 469 540 36,000  Level Indianapolis Center
12:30PM 36.5983 -83.3433 212° Southwest 465 535 36,000  Level Indianapolis Center
12:30PM 36.5611 -83.3744 214° Southwest 476 548 36,000  Level Atlanta Center
12:31PM 36.4900 -83.4297 212° Southwest 463 533 36,000  Level Indianapolis Center
12:32PM 36.3964 -83.5475 225° Southwest 454 522 36,000  Level Indianapolis Center
12:33PM 36.3286 -83.6744 236° Southwest 442 509 36,000  Level Indianapolis Center
12:33PM 36.3081 -83.7114 235° Southwest 452 520 36,000  Level Atlanta Center
12:34PM 36.2333 -83.8533 237° Southwest 446 513 36,000  Level Atlanta Center
12:35PM 36.1750 -83.9642 237° Southwest 446 513 36,000  Level Atlanta Center
12:36PM 36.1061 -84.0900 236° Southwest 446 513 36,000  Level Atlanta Center
12:37PM 36.0353 -84.2211 236° Southwest 446 513 36,000  Level Atlanta Center
12:38PM 35.9642 -84.3492 236° Southwest 446 513 36,000  Level Atlanta Center
12:39PM 35.8969 -84.4719 236° Southwest 446 513 36,000  Level Atlanta Center
12:40PM 35.8256 -84.5997 235° Southwest 446 513 36,000  Level Atlanta Center
12:41PM 35.7539 -84.7244 235° Southwest 446 513 36,000  Level Atlanta Center
12:42PM 35.6842 -84.8544 237° Southwest 451 519 36,000  Level Atlanta Center
12:43PM 35.6125 -84.9839 236° Southwest 456 525 36,000  Level Atlanta Center
12:44PM 35.5447 -85.1083 236° Southwest 456 525 36,000  Level Atlanta Center
12:45PM 35.4747 -85.2322 235° Southwest 456 525 36,000  Level Atlanta Center
12:46PM 35.3981 -85.3686 235° Southwest 456 525 36,000  Level Atlanta Center
12:47PM 35.3258 -85.4972 235° Southwest 456 525 36,000  Level Atlanta Center
12:48PM 35.2553 -85.6208 235° Southwest 456 525 36,000  Level Atlanta Center
12:49PM 35.1847 -85.7464 236° Southwest 456 525 36,000  Level Atlanta Center
12:50PM 35.1122 -85.8719 235° Southwest 456 525 36,000  Level Atlanta Center
12:51PM 35.0433 -85.9947 236° Southwest 456 525 36,000  Level Atlanta Center
12:52PM 34.9725 -86.1172 235° Southwest 456 525 36,000  Level Atlanta Center
12:53PM 34.9036 -86.2372 235° Southwest 443 510 36,000  Level Atlanta Center
12:54PM 34.8347 -86.3594 236° Southwest 443 510 36,000  Level Atlanta Center
12:55PM 34.7633 -86.4811 234° Southwest 443 510 36,000  Level Atlanta Center
12:56PM 34.6900 -86.6028 234° Southwest 443 510 36,000  Level Atlanta Center
12:56PM 34.6600 -86.6558 236° Southwest 445 512 36,000  Level Memphis Center
12:57PM 34.5883 -86.7775 234° Southwest 426 490 36,000  Level Memphis Center
12:58PM 34.5150 -86.9089 236° Southwest 438 504 36,000  Level Memphis Center
12:59PM 34.4431 -87.0278 234° Southwest 462 532 36,000  Level Memphis Center
01:00PM 34.3692 -87.1489 234° Southwest 450 518 36,000  Level Memphis Center
01:01PM 34.3031 -87.2594 234° Southwest 442 509 36,000  Level Memphis Center
01:02PM 34.2328 -87.3775 234° Southwest 442 509 36,000  Level Memphis Center
01:03PM 34.1547 -87.5133 235° Southwest 452 520 36,000  Level Memphis Center
01:04PM 34.0800 -87.6311 233° Southwest 457 526 36,000  Level Memphis Center
01:05PM 34.0075 -87.7536 234° Southwest 457 526 36,000  Level Memphis Center
01:06PM 33.9350 -87.8736 234° Southwest 452 520 36,000  Level Memphis Center
01:07PM 33.8622 -87.9933 234° Southwest 457 526 36,000  Level Memphis Center
01:08PM 33.7953 -88.1075 235° Southwest 457 526 36,000  Level Memphis Center
01:09PM 33.7203 -88.2269 233° Southwest 457 526 36,000  Level Memphis Center
01:10PM 33.6492 -88.3458 234° Southwest 457 526 36,000  Level Memphis Center
01:11PM 33.5739 -88.4647 233° Southwest 457 526 36,000  Level Memphis Center
01:12PM 33.5006 -88.5958 236° Southwest 452 520 36,000  Level Memphis Center
01:13PM 33.4250 -88.7144 233° Southwest 452 520 36,000  Level Memphis Center
01:14PM 33.3514 -88.8353 234° Southwest 452 520 36,000  Level Memphis Center
01:15PM 33.2756 -88.9558 233° Southwest 459 528 36,000  Level Memphis Center
01:16PM 33.2039 -89.0736 234° Southwest 453 521 36,000  Level Memphis Center
01:17PM 33.1297 -89.1914 233° Southwest 453 521 36,000  Level Memphis Center
01:18PM 33.0558 -89.3064 233° Southwest 453 521 36,000  Level Memphis Center
01:19PM 32.9814 -89.4236 233° Southwest 453 521 36,000  Level Memphis Center
01:20PM 32.9072 -89.5406 233° Southwest 453 521 36,000  Level Memphis Center
01:21PM 32.8328 -89.6525 232° Southwest 448 516 36,000  Level Memphis Center
01:22PM 32.7603 -89.7669 233° Southwest 443 510 36,000  Level Memphis Center
01:23PM 32.6897 -89.8808 234° Southwest 443 510 36,000  Level Memphis Center
01:24PM 32.6192 -89.9922 233° Southwest 438 504 36,000  Level Memphis Center
01:25PM 32.5486 -90.1008 232° Southwest 433 498 36,000  Level Memphis Center
01:26PM 32.4839 -90.2094 235° Southwest 422 486 36,000  Level Memphis Center
01:27PM 32.4236 -90.3253 238° Southwest 422 486 36,000  Level Memphis Center
01:28PM 32.3650 -90.4386 239° Southwest 412 474 36,000 -480 Level Memphis Center
01:29PM 32.3044 -90.5514 238° Southwest 412 474 35,100 -960 Descending Memphis Center
01:30PM 32.2456 -90.6669 239° Southwest 412 474 34,100 -600 Descending Memphis Center
01:31PM 32.1847 -90.7794 237° Southwest 412 474 34,000 -60 Descending Memphis Center
01:34PM 32.0717 -90.9981 239° Southwest 405 466 34,000  Level Houston Center
01:35PM 31.9994 -91.1314 237° Southwest 406 467 34,000  Level Houston Center
01:36PM 31.9411 -91.2428 238° Southwest 404 465 34,000  Level Houston Center
01:37PM 31.8808 -91.3539 237° Southwest 404 465 34,000  Level Houston Center
01:38PM 31.8206 -91.4650 237° Southwest 405 466 34,000  Level Houston Center
01:39PM 31.7633 -91.5758 239° Southwest 400 460 34,000  Level Houston Center
01:40PM 31.7044 -91.6836 237° Southwest 394 453 34,000  Level Houston Center
01:41PM 31.6336 -91.8119 237° Southwest 392 451 34,000  Level Houston Center
01:42PM 31.5764 -91.9189 238° Southwest 389 448 34,000  Level Houston Center
01:43PM 31.5178 -92.0256 237° Southwest 392 451 34,000  Level Houston Center
01:44PM 31.4619 -92.1228 236° Southwest 389 448 34,000  Level Houston Center
01:45PM 31.4053 -92.2300 238° Southwest 390 449 34,000  Level Houston Center
01:46PM 31.3347 -92.3567 237° Southwest 387 445 34,000  Level Houston Center
01:47PM 31.2742 -92.4631 236° Southwest 392 451 34,000  Level Houston Center
01:48PM 31.2175 -92.5694 238° Southwest 388 447 34,000 -60 Level Houston Center
01:49PM 31.1583 -92.6758 237° Southwest 391 450 33,900 -60 Descending Houston Center
01:50PM 31.0997 -92.7811 237° Southwest 389 448 33,900 -420 Level Houston Center
01:51PM 31.0411 -92.8864 237° Southwest 389 448 33,100 -1,020 Descending Houston Center
01:52PM 30.9683 -93.0139 236° Southwest 394 453 31,900 -1,080 Descending Houston Center
01:53PM 30.9069 -93.1222 237° Southwest 401 461 30,900 -1,020 Descending Houston Center
01:54PM 30.8450 -93.2331 237° Southwest 408 470 29,900 -1,020 Descending Houston Center
01:55PM 30.7847 -93.3400 237° Southwest 400 460 28,900 -1,020 Descending Houston Center
01:56PM 30.7242 -93.4469 237° Southwest 398 458 27,900 -1,020 Descending Houston Center
01:57PM 30.6642 -93.5517 236° Southwest 396 456 26,900 -1,020 Descending Houston Center
01:58PM 30.5950 -93.6747 237° Southwest 387 445 25,800 -1,020 Descending Houston Center
01:59PM 30.5367 -93.7761 236° Southwest 383 441 24,800 -1,020 Descending Houston Center
02:00PM 30.4800 -93.8772 237° Southwest 380 437 23,800 -1,020 Descending Houston Center
02:01PM 30.4233 -93.9747 236° Southwest 371 427 22,800 -1,380 Descending Houston Center
02:02PM 30.3567 -94.0900 236° Southwest 363 418 21,000 -2,280 Descending Houston Center
02:03PM 30.3306 -94.1314 234° Southwest 364 419 19,500 -3,000 Descending Houston Center
02:03PM 30.2994 -94.1861 237° Southwest 363 418 17,900 -2,760 Descending Houston Center
02:05PM 30.2483 -94.2761 237° Southwest 339 390 15,100 -1,920 Descending Houston Center
02:06PM 30.1972 -94.3664 237° Southwest 337 388 14,000 -1,320 Descending Houston Center
02:07PM 30.1792 -94.4717 259° West 333 383 12,400 -1,860 Descending Houston Center
02:08PM 30.1597 -94.5878 259° West 329 379 10,200 -1,200 Descending Houston Center
02:09PM 30.1417 -94.6900 258° West 326 375 10,000 -540 Descending Houston Center
02:10PM 30.1258 -94.7825 259° West 297 342 9,200 -1,260 Descending Houston Center
02:11PM 30.1108 -94.8711 259° West 284 327 7,400 -1,500 Descending Houston Center
02:12PM 30.1067 -94.9794 267° West 284 327 6,100 -660 Descending Houston Center
02:13PM 30.1061 -95.0686 270° West 280 322 6,100  Level Houston Center
02:14PM 30.1061 -95.1583 270° West 281 323 6,100  Level Houston Center
02:15PM 30.1067 -95.2467 270° West 278 320 6,100  Level Houston Center
02:16PM 30.1069 -95.3356 270° West 278 320 6,100 -300 Level Houston Center
02:17PM 30.1078 -95.4417 271° West 277 319 5,600 -780 Descending Houston Center
02:18PM 30.1067 -95.5289 269° West 249 287 4,600 -900 Descending Houston Center
02:19PM 30.0733 -95.5633 222° Southwest 223 257 3,800 -780 Descending Houston Center